Accueil
METAR-TAF:

METAR-TAF

Aéroports :

Kirksville Regional Airport

Kirksville, Missouri, États-Unis

latitude: 40-05-50N, longitude: 092-32-36W, altitude: 294 m

Observation

Le bulletin a été fait il y a 52 minutes, à 18:55 UTC
Vent 10 kt de sud-est
Température 18°C
Humidité 49%
Pression 1015 hPa
Visibilité: 16.1 km
Nuages fragmentés à une hauteur de 9000 ft
Ciel couvert à une hauteur de 11000 ft

METAR: KIRK 021855Z AUTO 14010KT 10SM BKN090 OVC110 18/07 A2997 RMK AO2 SLP150 T01780072

Heure: 14:47 (19:47 UTC)


TAF: absent

Observations et prévisions météorologiques de plus de 4000 aéroports (messages METAR et TAF).

Les stations disponibles sont représentées par des disques jaunes et rouges sur la carte.

Passer la souris dessus pour voir le nom de la station.

Cliquer dessus pour voir les observations et prévisions météorologiques.

Pour changer de carte: cliquez sur les boutons verts avec une croix noire pour zoomer, sur le bouton vert avec un tiret pour effectuer un zoom arrière, ou sur les flèches vertes pour les cartes adjacentes.


METAR-TAF: